createdAt,value
2022-09-16T00:00:53.972Z,16.96
2022-09-16T00:03:21.771Z,16.98
2022-09-16T00:05:52.669Z,16.99
2022-09-16T00:08:21.123Z,17.09
2022-09-16T00:10:49.037Z,17.12
2022-09-16T00:13:19.995Z,17.12
2022-09-16T00:15:50.973Z,17.17
2022-09-16T00:18:20.243Z,17.11
2022-09-16T00:20:50.797Z,17.16
2022-09-16T00:23:19.657Z,17.25
2022-09-16T00:25:53.588Z,17.22
2022-09-16T00:28:21.729Z,17.07
2022-09-16T00:30:52.132Z,17.18
2022-09-16T00:33:22.142Z,17.23
2022-09-16T00:35:51.156Z,17.15
2022-09-16T00:38:19.636Z,17.18
2022-09-16T00:40:49.099Z,17.19
2022-09-16T00:43:19.607Z,17.17
2022-09-16T00:45:55.727Z,17.17
2022-09-16T00:48:28.533Z,17.24
2022-09-16T00:51:01.356Z,17.20
2022-09-16T00:53:32.232Z,17.23
2022-09-16T00:56:04.092Z,17.09
2022-09-16T00:58:39.977Z,17.26
2022-09-16T01:01:08.276Z,17.35
2022-09-16T01:03:41.478Z,17.37
2022-09-16T01:06:11.449Z,17.35
2022-09-16T01:08:39.477Z,17.20
2022-09-16T01:11:09.828Z,17.32
2022-09-16T01:13:38.602Z,17.23
2022-09-16T01:16:09.812Z,17.32
2022-09-16T01:18:44.939Z,17.22
2022-09-16T01:21:27.509Z,17.03
2022-09-16T01:24:19.329Z,16.77
2022-09-16T01:27:11.096Z,16.85
2022-09-16T01:30:07.448Z,16.97
2022-09-16T01:32:47.386Z,16.79
2022-09-16T01:35:23.932Z,17.00
2022-09-16T01:38:02.320Z,16.97
2022-09-16T01:40:36.231Z,16.99
2022-09-16T01:43:10.749Z,17.10
2022-09-16T01:45:45.460Z,17.03
2022-09-16T01:48:25.206Z,16.91
2022-09-16T01:51:00.492Z,16.89
2022-09-16T01:53:33.600Z,16.97
2022-09-16T01:56:07.035Z,16.80
2022-09-16T01:58:42.186Z,16.68
2022-09-16T02:01:15.397Z,16.33
2022-09-16T02:03:51.814Z,16.50
2022-09-16T02:06:23.797Z,16.68
2022-09-16T02:08:56.905Z,16.64
2022-09-16T02:11:25.931Z,16.63
2022-09-16T02:14:00.576Z,16.66
2022-09-16T02:16:33.956Z,16.63
2022-09-16T02:19:11.649Z,16.37
2022-09-16T02:21:45.630Z,16.51
2022-09-16T02:24:18.280Z,16.67
2022-09-16T02:26:48.432Z,16.73
2022-09-16T02:29:22.088Z,16.75
2022-09-16T02:31:55.886Z,16.77
2022-09-16T02:34:29.347Z,16.69
2022-09-16T02:37:02.338Z,16.74
2022-09-16T02:39:33.572Z,16.65
2022-09-16T02:42:02.295Z,16.67
2022-09-16T02:44:30.681Z,16.65
2022-09-16T02:47:07.710Z,16.57
2022-09-16T02:49:44.118Z,16.61
2022-09-16T02:52:19.181Z,16.61
2022-09-16T02:54:52.968Z,16.64
2022-09-16T02:57:23.341Z,16.63
2022-09-16T02:59:51.602Z,16.56
2022-09-16T03:02:19.418Z,16.15
2022-09-16T03:04:48.805Z,16.29
2022-09-16T03:07:17.178Z,16.44
2022-09-16T03:09:48.661Z,16.28
2022-09-16T03:12:26.524Z,16.32
2022-09-16T03:15:08.996Z,16.40
2022-09-16T03:17:56.226Z,16.45
2022-09-16T03:20:35.203Z,16.48
2022-09-16T03:23:13.156Z,16.55
2022-09-16T03:25:50.798Z,16.54
2022-09-16T03:28:23.479Z,16.53
2022-09-16T03:31:00.659Z,16.57
2022-09-16T03:33:33.707Z,16.59
2022-09-16T03:36:06.674Z,16.62
2022-09-16T03:38:36.995Z,16.62
2022-09-16T03:41:05.641Z,16.59
2022-09-16T03:43:33.304Z,16.56
2022-09-16T03:46:01.023Z,16.59
2022-09-16T03:48:29.003Z,16.58
2022-09-16T03:50:59.679Z,16.57
2022-09-16T03:53:30.978Z,16.59
2022-09-16T03:55:58.620Z,16.54
2022-09-16T03:58:26.426Z,16.59
2022-09-16T04:00:54.256Z,16.68
2022-09-16T04:03:22.118Z,16.65
2022-09-16T04:05:53.752Z,16.63
2022-09-16T04:08:24.199Z,16.62
2022-09-16T04:10:57.595Z,16.56
2022-09-16T04:13:25.314Z,16.59
2022-09-16T04:15:52.999Z,16.58
2022-09-16T04:18:20.846Z,16.52
2022-09-16T04:20:48.589Z,16.55
2022-09-16T04:23:16.361Z,16.59
2022-09-16T04:25:44.055Z,16.58
2022-09-16T04:28:13.115Z,15.99
2022-09-16T04:30:40.873Z,16.19
2022-09-16T04:33:08.647Z,16.06
2022-09-16T04:35:36.389Z,16.01
2022-09-16T04:38:06.296Z,16.11
2022-09-16T04:40:34.144Z,16.00
2022-09-16T04:43:02.047Z,15.95
2022-09-16T04:45:33.184Z,15.97
2022-09-16T04:48:00.900Z,15.80
2022-09-16T04:50:28.661Z,15.69
2022-09-16T04:52:56.371Z,15.73
2022-09-16T04:55:26.193Z,16.01
2022-09-16T04:57:53.892Z,16.12
2022-09-16T05:00:24.019Z,16.31
2022-09-16T05:02:54.723Z,16.39
2022-09-16T05:05:22.562Z,16.45
2022-09-16T05:07:53.689Z,16.48
2022-09-16T05:10:21.533Z,16.34
2022-09-16T05:12:52.034Z,16.30
2022-09-16T05:15:20.331Z,16.37
2022-09-16T05:17:51.260Z,16.07
2022-09-16T05:20:23.174Z,16.35
2022-09-16T05:22:51.551Z,16.45
2022-09-16T05:25:21.574Z,16.53
2022-09-16T05:27:49.329Z,16.59
2022-09-16T05:30:17.493Z,16.60
2022-09-16T05:32:45.326Z,16.64
2022-09-16T05:35:13.279Z,16.49
2022-09-16T05:37:42.338Z,16.56
2022-09-16T05:40:10.399Z,16.51
2022-09-16T05:42:38.174Z,16.53
2022-09-16T05:45:09.559Z,16.48
2022-09-16T05:47:37.307Z,16.44
2022-09-16T05:50:05.975Z,16.43
2022-09-16T05:52:33.890Z,16.55
2022-09-16T05:55:03.284Z,16.61
2022-09-16T05:57:31.303Z,16.59
2022-09-16T05:59:59.102Z,16.56
2022-09-16T06:02:26.891Z,15.70
2022-09-16T06:04:54.625Z,16.00
2022-09-16T06:07:22.524Z,15.71
2022-09-16T06:09:50.275Z,16.04
2022-09-16T06:12:19.349Z,16.20
2022-09-16T06:14:47.093Z,16.09
2022-09-16T06:17:14.796Z,15.64
2022-09-16T06:19:42.432Z,15.82
2022-09-16T06:22:10.136Z,15.87
2022-09-16T06:24:37.862Z,16.02
2022-09-16T06:27:08.545Z,15.87
2022-09-16T06:29:39.735Z,15.84
2022-09-16T06:32:07.497Z,15.94
2022-09-16T06:34:35.182Z,16.22
2022-09-16T06:37:02.887Z,16.04
2022-09-16T06:39:30.576Z,15.93
2022-09-16T06:41:58.294Z,15.91
2022-09-16T06:44:42.343Z,16.22
2022-09-16T06:47:10.292Z,15.43
2022-09-16T06:49:40.460Z,14.43
2022-09-16T06:52:09.377Z,14.43
2022-09-16T06:54:37.151Z,14.36
2022-09-16T06:57:09.913Z,14.07
2022-09-16T06:59:40.228Z,14.06
2022-09-16T07:02:10.776Z,14.21
2022-09-16T07:04:38.883Z,13.66
2022-09-16T07:07:10.695Z,14.09
2022-09-16T07:09:38.586Z,14.79
2022-09-16T07:12:06.760Z,15.16
2022-09-16T07:14:36.551Z,15.32
2022-09-16T07:17:08.911Z,15.43
2022-09-16T07:19:42.278Z,14.78
2022-09-16T07:22:11.434Z,14.61
2022-09-16T07:24:39.174Z,14.84
2022-09-16T07:27:07.096Z,15.29
2022-09-16T07:29:37.966Z,15.64
2022-09-16T07:32:05.740Z,15.67
2022-09-16T07:34:35.669Z,15.80
2022-09-16T07:37:04.738Z,15.18
2022-09-16T07:39:34.775Z,14.85
2022-09-16T07:42:06.082Z,15.20
2022-09-16T07:44:34.075Z,15.17
2022-09-16T07:47:01.838Z,15.19
2022-09-16T07:49:29.557Z,15.32
2022-09-16T07:51:57.384Z,15.71
2022-09-16T07:54:26.447Z,15.72
2022-09-16T07:56:54.103Z,15.55
2022-09-16T07:59:21.859Z,15.96
2022-09-16T08:01:50.724Z,16.07
2022-09-16T08:04:21.529Z,16.02
2022-09-16T08:06:49.551Z,16.12
2022-09-16T08:12:07.914Z,16.45
2022-09-16T08:14:36.001Z,16.02
2022-09-16T08:17:03.853Z,16.21
2022-09-16T08:19:31.563Z,16.49
2022-09-16T08:22:01.323Z,16.68
2022-09-16T08:24:31.444Z,16.13
2022-09-16T08:26:59.181Z,16.46
2022-09-16T08:29:28.339Z,15.95
2022-09-16T08:31:56.225Z,16.33
2022-09-16T08:34:24.136Z,16.35
2022-09-16T08:36:52.007Z,16.25
2022-09-16T08:39:20.863Z,16.66
2022-09-16T08:42:07.957Z,16.81
2022-09-16T08:44:44.511Z,16.96
2022-09-16T08:47:23.286Z,16.90
2022-09-16T08:49:53.120Z,17.00
2022-09-16T08:52:31.957Z,16.89
2022-09-16T08:55:03.377Z,16.91
2022-09-16T08:57:35.689Z,16.93
2022-09-16T09:00:14.519Z,16.75
2022-09-16T09:02:48.833Z,17.07
2022-09-16T09:05:19.870Z,17.27
2022-09-16T09:07:56.591Z,17.19
2022-09-16T09:10:32.589Z,16.57
2022-09-16T09:13:10.967Z,16.65
2022-09-16T09:15:44.399Z,17.05
2022-09-16T09:18:27.148Z,17.20
2022-09-16T09:21:10.027Z,17.05
2022-09-16T09:23:53.481Z,16.93
2022-09-16T09:26:23.467Z,17.04
2022-09-16T09:29:15.297Z,17.02
2022-09-16T09:31:54.257Z,16.76
2022-09-16T09:34:37.024Z,17.00
2022-09-16T09:37:30.354Z,17.32
2022-09-16T09:40:08.644Z,16.97
2022-09-16T09:42:45.518Z,17.10
2022-09-16T09:45:24.200Z,17.13
2022-09-16T09:47:59.177Z,16.93
2022-09-16T09:50:30.937Z,17.03
2022-09-16T09:53:12.664Z,17.32
2022-09-16T09:55:42.800Z,17.05
2022-09-16T09:58:23.683Z,17.59
2022-09-16T10:00:53.159Z,17.71
2022-09-16T10:03:22.668Z,17.71
2022-09-16T10:05:52.789Z,17.45
2022-09-16T10:08:27.675Z,17.48
2022-09-16T10:10:57.114Z,17.03
2022-09-16T10:13:26.772Z,17.21
2022-09-16T10:16:10.424Z,17.38
2022-09-16T10:18:40.474Z,17.27
2022-09-16T10:21:10.705Z,16.94
2022-09-16T10:23:39.144Z,17.33
2022-09-16T10:26:17.764Z,17.48
2022-09-16T10:28:55.315Z,17.45
2022-09-16T10:31:24.070Z,17.43
2022-09-16T10:33:55.972Z,17.34
2022-09-16T10:36:26.348Z,17.28
2022-09-16T10:39:02.291Z,17.49
2022-09-16T10:41:35.330Z,17.44
2022-09-16T10:44:07.546Z,17.54
2022-09-16T10:46:35.536Z,17.70
2022-09-16T10:49:12.971Z,17.34
2022-09-16T10:51:44.618Z,17.35
2022-09-16T10:54:25.197Z,17.24
2022-09-16T10:56:53.589Z,17.02
2022-09-16T10:59:21.843Z,17.29
2022-09-16T11:01:59.376Z,17.76
2022-09-16T11:04:48.839Z,17.18
2022-09-16T11:07:33.066Z,17.42
2022-09-16T11:10:11.942Z,16.86
2022-09-16T11:12:57.211Z,16.80
2022-09-16T11:15:35.899Z,17.40
2022-09-16T11:18:19.849Z,17.38
2022-09-16T11:21:08.689Z,17.04
2022-09-16T11:23:54.348Z,17.09
2022-09-16T11:26:31.938Z,17.19
2022-09-16T11:29:34.207Z,16.73
2022-09-16T11:32:13.714Z,16.93
2022-09-16T11:34:55.272Z,16.93
2022-09-16T11:37:29.590Z,17.29
2022-09-16T11:40:21.212Z,17.12
2022-09-16T11:42:57.561Z,16.85
2022-09-16T11:45:45.604Z,16.83
2022-09-16T11:48:37.892Z,17.33
2022-09-16T11:51:13.987Z,17.11
2022-09-16T11:54:02.689Z,17.38
2022-09-16T11:56:37.447Z,16.84
2022-09-16T11:59:14.701Z,17.60
2022-09-16T12:01:45.480Z,17.38
2022-09-16T12:04:20.492Z,17.34
2022-09-16T12:06:55.989Z,17.64
2022-09-16T12:09:35.228Z,17.28
2022-09-16T12:12:11.795Z,18.03
2022-09-16T12:14:43.668Z,18.75
2022-09-16T12:17:18.483Z,18.96
2022-09-16T12:19:53.350Z,19.24
2022-09-16T12:22:24.577Z,19.52
2022-09-16T12:25:03.519Z,20.27
2022-09-16T12:27:42.165Z,19.60
2022-09-16T12:30:16.821Z,19.69
2022-09-16T12:32:54.632Z,19.76
2022-09-16T12:35:27.458Z,19.94
2022-09-16T12:37:57.499Z,19.91
2022-09-16T12:40:28.944Z,20.30
2022-09-16T12:43:18.266Z,19.42
2022-09-16T12:46:09.620Z,20.19
2022-09-16T12:49:00.004Z,20.41
2022-09-16T12:52:07.504Z,20.15
2022-09-16T12:55:08.102Z,19.72
2022-09-16T12:57:52.544Z,19.15
2022-09-16T13:00:22.401Z,19.42
2022-09-16T13:02:53.976Z,20.08
2022-09-16T13:05:30.857Z,20.04
2022-09-16T13:08:04.589Z,19.63
2022-09-16T13:10:54.567Z,19.96
2022-09-16T13:13:35.432Z,19.34
2022-09-16T13:16:06.093Z,19.93
2022-09-16T13:18:43.048Z,19.78
2022-09-16T13:21:23.541Z,19.80
2022-09-16T13:24:00.695Z,19.49
2022-09-16T13:26:40.051Z,19.78
2022-09-16T13:29:28.411Z,19.67
2022-09-16T13:34:29.198Z,19.42
2022-09-16T13:36:57.775Z,19.95
2022-09-16T13:39:31.581Z,19.42
2022-09-16T13:42:11.368Z,19.32
2022-09-16T13:44:44.133Z,19.62
2022-09-16T13:47:17.196Z,19.66
2022-09-16T13:49:49.756Z,19.07
2022-09-16T13:52:21.909Z,19.54
2022-09-16T13:55:10.088Z,19.61
2022-09-16T13:58:00.257Z,19.73
2022-09-16T14:00:37.616Z,19.75
2022-09-16T14:03:26.743Z,19.33
2022-09-16T14:06:34.287Z,19.28
2022-09-16T14:09:13.352Z,19.08
2022-09-16T14:11:48.959Z,19.27
2022-09-16T14:14:45.888Z,19.13
2022-09-16T14:17:18.745Z,19.30
2022-09-16T14:19:49.560Z,18.76
2022-09-16T14:22:19.798Z,18.71
2022-09-16T14:24:50.385Z,18.82
2022-09-16T14:27:29.771Z,18.90
2022-09-16T14:29:59.067Z,18.96
2022-09-16T14:32:31.436Z,19.11
2022-09-16T14:35:09.511Z,19.15
2022-09-16T14:37:39.816Z,18.67
2022-09-16T14:40:13.730Z,19.22
2022-09-16T14:42:49.159Z,18.85
2022-09-16T14:45:18.527Z,19.07
2022-09-16T14:47:52.125Z,18.85
2022-09-16T14:50:23.232Z,19.03
2022-09-16T14:52:56.661Z,18.93
2022-09-16T14:55:28.460Z,19.02
2022-09-16T14:57:56.452Z,19.36
2022-09-16T15:00:29.361Z,19.27
2022-09-16T15:03:04.378Z,19.42
2022-09-16T15:05:36.713Z,18.88
2022-09-16T15:08:14.404Z,19.45
2022-09-16T15:10:52.099Z,19.09
2022-09-16T15:13:22.922Z,19.27
2022-09-16T15:15:54.363Z,19.31
2022-09-16T15:18:28.484Z,19.22
2022-09-16T15:21:05.619Z,19.22
2022-09-16T15:23:34.521Z,19.20
2022-09-16T15:26:13.152Z,18.87
2022-09-16T15:28:54.333Z,18.71
2022-09-16T15:31:44.716Z,18.57
2022-09-16T15:34:24.736Z,19.02
2022-09-16T15:37:02.198Z,19.20
2022-09-16T15:39:31.774Z,19.28
2022-09-16T15:42:13.022Z,18.71
2022-09-16T15:44:47.616Z,18.81
2022-09-16T15:47:21.198Z,18.44
2022-09-16T15:49:54.740Z,18.47
2022-09-16T15:52:23.283Z,18.61
2022-09-16T15:54:55.330Z,18.95
2022-09-16T15:57:30.851Z,18.86
2022-09-16T16:00:10.900Z,18.49
2022-09-16T16:02:46.726Z,18.78
2022-09-16T16:05:18.542Z,18.66
2022-09-16T16:07:49.789Z,18.22
2022-09-16T16:10:20.752Z,18.15
2022-09-16T16:12:48.930Z,18.53
2022-09-16T16:15:22.489Z,18.34
2022-09-16T16:17:51.380Z,18.17
2022-09-16T16:20:21.821Z,18.42
2022-09-16T16:22:49.828Z,18.29
2022-09-16T16:25:18.066Z,18.26
2022-09-16T16:27:46.261Z,18.44
2022-09-16T16:30:14.750Z,18.64
2022-09-16T16:32:42.676Z,18.30
2022-09-16T16:35:16.531Z,18.05
2022-09-16T16:37:48.245Z,18.29
2022-09-16T16:40:16.859Z,18.00
2022-09-16T16:42:45.127Z,18.42
2022-09-16T16:45:13.427Z,18.12
2022-09-16T16:47:41.426Z,18.45
2022-09-16T16:50:10.180Z,18.06
2022-09-16T16:52:38.359Z,17.90
2022-09-16T16:55:08.490Z,18.18
2022-09-16T16:57:36.283Z,17.79
2022-09-16T17:00:04.759Z,17.56
2022-09-16T17:02:32.625Z,17.45
2022-09-16T17:05:00.478Z,17.11
2022-09-16T17:07:30.345Z,17.24
2022-09-16T17:10:00.691Z,16.22
2022-09-16T17:12:30.234Z,16.46
2022-09-16T17:14:58.042Z,15.58
2022-09-16T17:17:30.700Z,15.34
2022-09-16T17:19:59.412Z,15.56
2022-09-16T17:22:27.429Z,15.83
2022-09-16T17:24:55.556Z,15.91
2022-09-16T17:27:26.810Z,15.36
2022-09-16T17:29:55.883Z,15.85
2022-09-16T17:32:23.692Z,16.23
2022-09-16T17:34:51.439Z,15.78
2022-09-16T17:37:19.885Z,15.89
2022-09-16T17:39:48.565Z,16.53
2022-09-16T17:42:16.499Z,16.72
2022-09-16T17:44:44.259Z,16.82
2022-09-16T17:47:13.334Z,16.90
2022-09-16T17:49:41.381Z,16.48
2022-09-16T17:52:09.348Z,16.31
2022-09-16T17:54:37.067Z,16.59
2022-09-16T17:57:04.997Z,16.64
2022-09-16T17:59:32.836Z,16.63
2022-09-16T18:02:00.731Z,16.28
2022-09-16T18:04:31.011Z,16.50
2022-09-16T18:06:58.780Z,16.43
2022-09-16T18:09:26.580Z,16.24
2022-09-16T18:11:54.369Z,16.43
2022-09-16T18:14:23.541Z,16.43
2022-09-16T18:16:51.851Z,16.44
2022-09-16T18:19:22.834Z,16.55
2022-09-16T18:21:51.945Z,16.53
2022-09-16T18:24:20.006Z,16.51
2022-09-16T18:26:47.746Z,16.49
2022-09-16T18:29:15.544Z,16.55
2022-09-16T18:31:47.534Z,16.55
2022-09-16T18:34:16.514Z,16.54
2022-09-16T18:36:44.422Z,16.57
2022-09-16T18:39:17.571Z,16.53
2022-09-16T18:41:48.181Z,16.50
2022-09-16T18:44:19.547Z,16.37
2022-09-16T18:46:49.318Z,16.14
2022-09-16T18:49:18.565Z,16.03
2022-09-16T18:51:51.331Z,15.96
2022-09-16T18:54:24.704Z,16.20
2022-09-16T18:56:55.633Z,15.80
2022-09-16T18:59:28.357Z,15.92
2022-09-16T19:01:57.916Z,14.79
2022-09-16T19:04:30.223Z,15.24
2022-09-16T19:07:05.629Z,15.72
2022-09-16T19:09:36.041Z,15.80
2022-09-16T19:12:03.955Z,15.80
2022-09-16T19:14:31.871Z,15.44
2022-09-16T19:17:02.149Z,15.47
2022-09-16T19:19:29.952Z,15.57
2022-09-16T19:21:57.724Z,15.60
2022-09-16T19:24:26.932Z,15.15
2022-09-16T19:26:56.451Z,15.46
2022-09-16T19:29:24.516Z,15.55
2022-09-16T19:31:53.759Z,15.25
2022-09-16T19:34:22.624Z,15.43
2022-09-16T19:36:50.612Z,15.49
2022-09-16T19:39:21.029Z,15.44
2022-09-16T19:41:48.772Z,15.53
2022-09-16T19:44:20.368Z,15.34
2022-09-16T19:46:49.337Z,15.01
2022-09-16T19:49:19.657Z,14.91
2022-09-16T19:51:48.231Z,15.26
2022-09-16T19:54:16.464Z,15.19
2022-09-16T19:56:49.533Z,15.28
2022-09-16T19:59:20.116Z,14.97
2022-09-16T20:01:48.592Z,15.08
2022-09-16T20:04:20.825Z,14.87
2022-09-16T20:06:49.055Z,14.86
2022-09-16T20:09:17.174Z,14.48
2022-09-16T20:11:47.060Z,14.33
2022-09-16T20:14:16.775Z,14.46
2022-09-16T20:16:45.896Z,14.44
2022-09-16T20:19:16.129Z,14.49
2022-09-16T20:21:44.620Z,14.41
2022-09-16T20:24:16.301Z,14.58
2022-09-16T20:26:44.252Z,14.68
2022-09-16T20:29:11.933Z,14.46
2022-09-16T20:31:39.725Z,14.55
2022-09-16T20:34:08.989Z,14.39
2022-09-16T20:36:38.634Z,14.48
2022-09-16T20:39:11.102Z,14.52
2022-09-16T20:41:41.026Z,14.60
2022-09-16T20:44:12.388Z,14.71
2022-09-16T20:46:40.069Z,14.55
2022-09-16T20:49:10.640Z,14.34
2022-09-16T20:51:38.471Z,14.36
2022-09-16T20:54:12.181Z,14.39
2022-09-16T20:56:41.687Z,14.39
2022-09-16T20:59:11.297Z,14.48
2022-09-16T21:01:40.671Z,14.50
2022-09-16T21:04:13.391Z,14.48
2022-09-16T21:06:41.476Z,14.56
2022-09-16T21:09:12.399Z,14.41
2022-09-16T21:11:44.987Z,14.27
2022-09-16T21:14:15.441Z,14.36
2022-09-16T21:16:45.280Z,14.45
2022-09-16T21:19:14.574Z,14.62
2022-09-16T21:21:45.988Z,14.25
2022-09-16T21:24:14.320Z,14.40
2022-09-16T21:26:43.889Z,14.46
2022-09-16T21:29:14.017Z,14.51
2022-09-16T21:31:43.092Z,14.19
2022-09-16T21:34:14.871Z,14.17
2022-09-16T21:36:44.480Z,14.24
2022-09-16T21:39:13.564Z,14.37
2022-09-16T21:41:41.361Z,14.44
2022-09-16T21:44:09.133Z,14.31
2022-09-16T21:46:43.968Z,14.45
2022-09-16T21:49:18.132Z,14.10
2022-09-16T21:51:45.890Z,14.15
2022-09-16T21:54:19.703Z,14.02
2022-09-16T21:56:48.459Z,14.26
2022-09-16T21:59:16.642Z,14.32
2022-09-16T22:01:44.899Z,14.26
2022-09-16T22:04:15.663Z,14.17
2022-09-16T22:06:45.835Z,14.17
2022-09-16T22:09:13.852Z,14.42
2022-09-16T22:11:43.682Z,14.16
2022-09-16T22:14:12.393Z,14.07
2022-09-16T22:16:41.603Z,14.21
2022-09-16T22:19:11.154Z,14.11
2022-09-16T22:21:42.714Z,14.10
2022-09-16T22:24:11.099Z,14.32
2022-09-16T22:26:39.767Z,14.12
2022-09-16T22:29:09.102Z,13.99
2022-09-16T22:31:38.621Z,14.15
2022-09-16T22:34:06.901Z,14.16
2022-09-16T22:36:38.383Z,14.24
2022-09-16T22:39:14.241Z,14.27
2022-09-16T22:41:42.567Z,14.21
2022-09-16T22:44:10.625Z,14.12
2022-09-16T22:46:42.575Z,14.08
2022-09-16T22:49:11.313Z,13.68
2022-09-16T22:51:39.402Z,14.00
2022-09-16T22:54:09.190Z,13.80
2022-09-16T22:56:37.129Z,13.70
2022-09-16T22:59:06.508Z,13.71
2022-09-16T23:01:36.867Z,13.86
2022-09-16T23:04:06.071Z,14.05
2022-09-16T23:06:35.532Z,14.02
2022-09-16T23:09:04.146Z,14.13
2022-09-16T23:11:34.980Z,13.94
2022-09-16T23:14:04.135Z,13.92
2022-09-16T23:16:34.175Z,13.74
2022-09-16T23:19:04.356Z,13.90
2022-09-16T23:21:32.485Z,13.97
2022-09-16T23:24:03.279Z,13.34
2022-09-16T23:26:33.943Z,13.66
2022-09-16T23:29:06.508Z,13.63
2022-09-16T23:31:37.664Z,13.65
2022-09-16T23:34:07.780Z,13.50
2022-09-16T23:36:37.585Z,13.72
2022-09-16T23:39:06.818Z,13.47
2022-09-16T23:41:36.595Z,13.47
2022-09-16T23:44:05.496Z,13.65
2022-09-16T23:46:34.414Z,13.62
2022-09-16T23:49:02.936Z,13.65
2022-09-16T23:51:32.245Z,13.49
2022-09-16T23:54:00.471Z,13.42
2022-09-16T23:56:30.511Z,13.41
2022-09-16T23:59:02.565Z,13.58
